Time;durP1;ratioP1;P1;durP2;ratioP2;P2;SDS_P1;SDS_P2;PMS_P1;PMS_P2;Temp;Humidity;BMP_temperature;BMP_pressure;BME280_temperature;BME280_humidity;BME280_pressure;Samples;Min_cycle;Max_cycle;Signal;HPM_P1;HPM_P2
2023/08/01 00:01:37;;;;;;;3.85;1.70;;;;;;;20.78;51.01;98598.13;4304297;33;33237;-88
2023/08/01 00:04:04;;;;;;;4.37;1.70;;;;;;;20.82;50.95;98595.31;4341258;33;34768;-88
2023/08/01 00:06:32;;;;;;;6.25;1.60;;;;;;;20.80;51.10;98591.91;4331627;33;34907;-88
2023/08/01 00:08:59;;;;;;;7.72;1.80;;;;;;;20.79;51.04;98592.78;4331651;33;34611;-88
2023/08/01 00:11:27;;;;;;;4.95;1.55;;;;;;;20.64;51.38;98596.00;4328075;33;33441;-86
2023/08/01 00:13:55;;;;;;;4.78;1.80;;;;;;;20.59;51.70;98595.31;4340265;33;32482;-86
2023/08/01 00:16:23;;;;;;;6.03;1.98;;;;;;;20.65;51.93;98585.44;4328528;33;33915;-86
2023/08/01 00:18:52;;;;;;;4.85;2.03;;;;;;;20.56;52.64;98600.69;4329022;33;34056;-87
2023/08/01 00:21:21;;;;;;;5.68;1.95;;;;;;;20.65;52.55;98589.84;4331155;33;33559;-87
2023/08/01 00:23:48;;;;;;;5.00;1.83;;;;;;;20.59;52.74;98596.19;4317446;33;33656;-86
2023/08/01 00:26:17;;;;;;;5.43;2.10;;;;;;;20.65;52.50;98592.47;4331246;33;35618;-87
2023/08/01 00:28:45;;;;;;;5.55;1.85;;;;;;;20.69;52.55;98594.09;4340353;33;34983;-87
2023/08/01 00:31:13;;;;;;;6.28;2.03;;;;;;;20.79;52.20;98589.31;4332004;33;33457;-86
2023/08/01 00:33:40;;;;;;;4.15;1.85;;;;;;;20.78;52.40;98587.59;4330866;33;34117;-88
2023/08/01 00:36:09;;;;;;;6.50;2.30;;;;;;;20.74;52.57;98586.84;4331055;33;34168;-87
2023/08/01 00:38:37;;;;;;;5.45;1.80;;;;;;;20.72;52.62;98583.44;4331577;33;33847;-87
2023/08/01 00:41:05;;;;;;;4.30;1.83;;;;;;;20.69;52.83;98583.53;4331230;33;32833;-86
2023/08/01 00:43:32;;;;;;;4.37;2.00;;;;;;;20.61;53.17;98585.59;4321395;33;34554;-87
2023/08/01 00:46:02;;;;;;;7.82;2.00;;;;;;;20.61;53.34;98583.84;4316988;33;34523;-86
2023/08/01 00:48:31;;;;;;;7.25;2.08;;;;;;;20.57;53.27;98576.06;4331117;33;33595;-87
2023/08/01 00:51:05;;;;;;;4.82;2.15;;;;;;;20.53;53.47;98578.00;4330935;33;33385;-88
2023/08/01 00:53:33;;;;;;;6.97;1.90;;;;;;;20.54;53.70;98570.94;4328739;33;33957;-87
2023/08/01 00:56:01;;;;;;;6.32;2.08;;;;;;;20.47;53.87;98566.78;4340060;33;34841;-87
2023/08/01 00:58:31;;;;;;;6.05;2.10;;;;;;;20.49;53.82;98560.56;4345773;33;34441;-87
2023/08/01 01:00:59;;;;;;;6.90;2.28;;;;;;;20.58;53.50;98559.38;4330118;33;33479;-88
2023/08/01 01:03:28;;;;;;;8.20;2.58;;;;;;;20.54;53.59;98555.16;4325057;33;33789;-88
2023/08/01 01:06:07;;;;;;;6.25;2.05;;;;;;;20.44;53.99;98549.31;4331064;33;33895;-88
2023/08/01 01:08:35;;;;;;;5.45;1.83;;;;;;;20.44;53.96;98551.94;4316908;33;33636;-87
2023/08/01 01:11:04;;;;;;;5.75;2.00;;;;;;;20.54;53.66;98548.09;4329635;33;33409;-87
2023/08/01 01:13:32;;;;;;;4.95;1.90;;;;;;;20.33;54.24;98551.50;4316308;33;34402;-88
2023/08/01 01:16:01;;;;;;;6.62;2.15;;;;;;;20.50;53.72;98550.91;4316359;33;35171;-88
2023/08/01 01:18:29;;;;;;;6.68;1.80;;;;;;;20.44;53.95;98557.22;4318615;33;34346;-86
2023/08/01 01:20:57;;;;;;;6.20;2.37;;;;;;;20.35;54.25;98555.78;4330410;33;34560;-88
2023/08/01 01:23:26;;;;;;;7.07;2.65;;;;;;;20.27;54.32;98555.22;4330469;33;33691;-88
2023/08/01 01:25:55;;;;;;;4.87;2.08;;;;;;;20.25;54.33;98546.50;4345369;33;34141;-88
2023/08/01 01:28:23;;;;;;;8.65;2.50;;;;;;;20.27;54.10;98549.09;4328830;33;33719;-86
2023/08/01 01:30:55;;;;;;;4.25;2.00;;;;;;;20.26;53.88;98550.84;4325444;33;33434;-87
2023/08/01 01:33:23;;;;;;;6.90;2.40;;;;;;;20.29;53.63;98537.56;4318157;33;33983;-88
2023/08/01 01:35:50;;;;;;;8.77;2.17;;;;;;;20.36;53.47;98535.59;4316268;33;35113;-88
2023/08/01 01:38:18;;;;;;;4.95;2.20;;;;;;;20.31;53.44;98534.91;4324118;33;33666;-88
2023/08/01 01:40:45;;;;;;;5.45;2.47;;;;;;;20.25;53.78;98535.13;4330976;33;33904;-87
2023/08/01 01:43:13;;;;;;;8.82;2.15;;;;;;;20.16;53.84;98523.16;4330700;33;34132;-88
2023/08/01 01:45:40;;;;;;;5.22;2.50;;;;;;;20.13;53.76;98526.75;4330436;33;33921;-88
2023/08/01 01:48:08;;;;;;;6.68;2.22;;;;;;;20.16;53.65;98531.06;4340506;33;34723;-87
2023/08/01 01:50:35;;;;;;;6.00;2.47;;;;;;;20.32;53.15;98532.22;4323995;33;34071;-88
2023/08/01 01:53:03;;;;;;;5.90;2.28;;;;;;;20.22;53.40;98528.19;4330854;33;33826;-88
2023/08/01 01:55:31;;;;;;;5.45;2.58;;;;;;;20.09;53.83;98533.03;4319417;33;34649;-85
2023/08/01 01:57:59;;;;;;;8.63;2.45;;;;;;;20.04;53.98;98531.47;4330933;33;33946;-86
2023/08/01 02:00:27;;;;;;;6.78;2.35;;;;;;;20.09;53.70;98521.66;4318766;33;33317;-88
2023/08/01 02:02:54;;;;;;;4.35;2.08;;;;;;;20.24;53.38;98521.09;4342952;33;34723;-86
2023/08/01 02:05:22;;;;;;;4.90;2.00;;;;;;;20.18;53.67;98513.41;4346717;33;35114;-88
2023/08/01 02:07:49;;;;;;;6.95;2.28;;;;;;;20.11;53.85;98511.94;4345457;33;34666;-86
2023/08/01 02:10:17;;;;;;;5.40;2.33;;;;;;;19.94;54.16;98509.91;4332087;33;34557;-88
2023/08/01 02:12:45;;;;;;;4.90;1.95;;;;;;;19.93;54.10;98514.31;4331849;33;34766;-88
2023/08/01 02:15:12;;;;;;;4.32;2.15;;;;;;;19.93;54.16;98516.94;4332157;33;35161;-87
2023/08/01 02:17:40;;;;;;;5.97;3.10;;;;;;;19.99;53.94;98512.38;4332010;33;34869;-88
2023/08/01 02:20:09;;;;;;;7.32;2.10;;;;;;;19.97;53.95;98507.19;4341383;32;33150;-87
2023/08/01 02:22:37;;;;;;;6.60;2.42;;;;;;;19.87;54.17;98504.00;4333737;33;34098;-86
2023/08/01 02:25:05;;;;;;;7.18;2.45;;;;;;;19.75;54.28;98504.44;4332106;33;34925;-88
2023/08/01 02:27:32;;;;;;;6.12;2.33;;;;;;;19.61;54.41;98502.25;4331225;33;34069;-87
2023/08/01 02:30:00;;;;;;;7.90;2.47;;;;;;;19.67;54.34;98499.44;4331980;33;34190;-85
2023/08/01 02:32:28;;;;;;;7.10;2.33;;;;;;;19.61;54.85;98498.75;4317339;33;34713;-86
2023/08/01 02:34:58;;;;;;;6.85;2.30;;;;;;;19.55;54.81;98507.72;4321690;33;34889;-87
2023/08/01 02:37:26;;;;;;;5.05;2.15;;;;;;;19.56;55.25;98495.44;4331305;33;34875;-87
2023/08/01 02:39:53;;;;;;;7.55;2.92;;;;;;;19.66;54.53;98483.72;4317327;33;34132;-86
2023/08/01 02:42:21;;;;;;;5.93;2.10;;;;;;;19.57;54.92;98490.13;4335309;32;34107;-88
2023/08/01 02:44:49;;;;;;;6.50;2.35;;;;;;;19.73;54.64;98485.22;4342717;33;33902;-88
2023/08/01 02:47:16;;;;;;;8.32;2.70;;;;;;;19.71;54.81;98494.94;4332059;33;33858;-87
2023/08/01 02:49:44;;;;;;;8.43;2.45;;;;;;;19.64;54.77;98496.91;4331780;33;33950;-87
2023/08/01 02:52:11;;;;;;;7.43;2.47;;;;;;;19.77;54.30;98494.72;4330994;33;34921;-88
2023/08/01 02:54:39;;;;;;;8.73;2.78;;;;;;;19.71;54.62;98488.84;4325297;33;34880;-87
2023/08/01 02:57:06;;;;;;;5.07;2.17;;;;;;;19.60;54.78;98495.28;4325651;33;33919;-87
2023/08/01 02:59:34;;;;;;;8.60;2.40;;;;;;;19.56;54.87;98496.28;4325896;33;33571;-87
2023/08/01 03:02:02;;;;;;;7.18;2.60;;;;;;;19.73;54.48;98501.00;4317052;33;34205;-87
2023/08/01 03:04:29;;;;;;;7.93;2.80;;;;;;;19.74;54.53;98492.22;4325978;33;34068;-87
2023/08/01 03:07:13;;;;;;;7.60;2.30;;;;;;;19.66;54.78;98494.22;4317791;33;34025;-86
2023/08/01 03:09:42;;;;;;;5.32;2.30;;;;;;;19.76;54.60;98485.09;4316933;33;33044;-86
2023/08/01 03:12:10;;;;;;;4.12;1.90;;;;;;;19.66;54.75;98489.84;4317159;33;34012;-87
2023/08/01 03:14:37;;;;;;;7.45;2.40;;;;;;;19.67;54.68;98495.97;4326728;33;33390;-87
2023/08/01 03:17:05;;;;;;;8.05;2.55;;;;;;;19.69;54.68;98494.13;4331338;33;35187;-86
2023/08/01 03:19:32;;;;;;;6.47;2.40;;;;;;;19.72;54.66;98491.41;4332332;33;33141;-88
2023/08/01 03:22:00;;;;;;;6.45;2.40;;;;;;;19.61;54.95;98488.25;4346245;33;33933;-87
2023/08/01 03:24:28;;;;;;;6.03;2.53;;;;;;;19.77;54.52;98476.31;4336404;33;33987;-87
2023/08/01 03:26:55;;;;;;;8.18;2.78;;;;;;;19.75;54.58;98478.16;4331566;33;34530;-87
2023/08/01 03:29:23;;;;;;;7.10;2.67;;;;;;;19.83;54.36;98475.25;4326255;33;33727;-88
2023/08/01 03:31:51;;;;;;;7.87;2.17;;;;;;;19.87;54.28;98477.69;4316596;33;34802;-89
2023/08/01 03:34:19;;;;;;;6.62;2.60;;;;;;;19.70;55.04;98480.09;4327129;33;34774;-86
2023/08/01 03:36:48;;;;;;;6.85;2.83;;;;;;;19.84;54.56;98477.81;4331766;33;33437;-87
2023/08/01 03:39:16;;;;;;;5.53;2.67;;;;;;;19.78;54.81;98483.31;4331525;33;33974;-87
2023/08/01 03:41:43;;;;;;;6.32;2.75;;;;;;;19.80;54.89;98481.47;4328385;33;33514;-86
2023/08/01 03:44:11;;;;;;;6.03;2.50;;;;;;;19.86;54.80;98480.41;4323019;33;34254;-88
2023/08/01 03:46:38;;;;;;;5.85;2.58;;;;;;;19.80;55.06;98480.59;4323070;33;34791;-85
2023/08/01 03:49:06;;;;;;;8.48;2.65;;;;;;;19.76;55.07;98474.59;4326854;33;33516;-87
2023/08/01 03:51:34;;;;;;;7.07;2.65;;;;;;;19.89;54.79;98467.13;4317696;33;34351;-86
2023/08/01 03:54:01;;;;;;;6.07;2.80;;;;;;;19.89;54.86;98465.38;4327932;33;32591;-86
2023/08/01 03:56:43;;;;;;;5.47;2.40;;;;;;;19.93;54.83;98468.75;4346362;33;33512;-88
2023/08/01 03:59:12;;;;;;;6.28;2.75;;;;;;;19.94;54.96;98473.09;4336733;33;34045;-87
2023/08/01 04:01:40;;;;;;;7.85;2.70;;;;;;;19.84;55.37;98467.28;4317640;33;34797;-88
2023/08/01 04:04:08;;;;;;;5.10;2.55;;;;;;;19.94;55.69;98467.81;4318260;33;34175;-90
2023/08/01 04:06:36;;;;;;;5.93;2.60;;;;;;;20.09;55.44;98467.25;4336197;33;34305;-88
2023/08/01 04:09:06;;;;;;;6.07;2.72;;;;;;;20.15;55.70;98474.06;4331524;33;34350;-89
2023/08/01 04:11:34;;;;;;;7.32;2.75;;;;;;;20.15;55.87;98464.41;4331276;33;34187;-88
2023/08/01 04:14:01;;;;;;;6.60;2.62;;;;;;;20.26;55.56;98465.75;4330968;33;35129;-85
2023/08/01 04:16:30;;;;;;;5.75;3.00;;;;;;;20.19;55.52;98467.75;4331406;33;34631;-89
2023/08/01 04:18:58;;;;;;;11.32;3.55;;;;;;;20.22;56.04;98470.28;4331381;33;33808;-88
2023/08/01 04:21:25;;;;;;;8.52;2.83;;;;;;;20.33;55.76;98468.09;4331284;33;33693;-89
2023/08/01 04:23:53;;;;;;;7.50;2.80;;;;;;;20.51;55.47;98471.00;4316927;33;34978;-88
2023/08/01 04:26:20;;;;;;;6.95;2.53;;;;;;;20.64;55.25;98467.81;4303657;33;34023;-89
2023/08/01 04:28:48;;;;;;;6.28;2.50;;;;;;;20.71;55.14;98465.78;4316476;33;33441;-87
2023/08/01 04:31:15;;;;;;;6.00;2.75;;;;;;;20.78;54.98;98466.41;4323286;33;33682;-88
2023/08/01 04:33:43;;;;;;;5.60;2.47;;;;;;;20.88;54.84;98460.72;4331337;33;33634;-88
2023/08/01 04:36:11;;;;;;;5.60;2.20;;;;;;;21.09;54.78;98466.03;4340704;33;34211;-88
2023/08/01 04:38:38;;;;;;;7.30;2.83;;;;;;;21.36;54.08;98464.91;4346262;33;33723;-88
2023/08/01 04:41:06;;;;;;;6.72;3.30;;;;;;;21.47;53.87;98458.31;4339999;33;33919;-90
2023/08/01 04:43:33;;;;;;;7.20;3.42;;;;;;;21.10;55.67;98463.34;4331061;33;34390;-89
2023/08/01 04:46:01;;;;;;;8.48;3.05;;;;;;;21.40;54.91;98454.22;4331065;33;34707;-88
2023/08/01 04:48:28;;;;;;;8.10;3.00;;;;;;;21.81;53.79;98455.94;4331333;33;32653;-89
2023/08/01 04:50:56;;;;;;;6.57;2.87;;;;;;;22.37;52.50;98456.13;4330632;33;33534;-88
2023/08/01 04:53:23;;;;;;;9.57;3.30;;;;;;;23.19;51.02;98446.03;4331184;33;35059;-87
2023/08/01 04:55:51;;;;;;;7.20;3.22;;;;;;;23.33;49.40;98445.31;4331264;33;33977;-89
2023/08/01 04:58:18;;;;;;;7.68;3.17;;;;;;;23.61;48.94;98440.34;4333717;33;32626;-88
2023/08/01 05:00:46;;;;;;;7.93;2.80;;;;;;;24.33;47.99;98439.16;4345579;33;33919;-89
2023/08/01 05:03:14;;;;;;;5.80;2.83;;;;;;;24.20;47.76;98433.66;4346073;33;33563;-89
2023/08/01 05:05:41;;;;;;;7.93;3.20;;;;;;;24.61;46.79;98435.00;4344062;33;33824;-89
2023/08/01 05:08:09;;;;;;;7.55;3.65;;;;;;;24.70;46.54;98431.84;4341085;33;33228;-87
2023/08/01 05:10:36;;;;;;;8.63;3.20;;;;;;;24.82;46.55;98435.62;4330520;33;34724;-89
2023/08/01 05:13:04;;;;;;;5.32;2.75;;;;;;;24.74;46.24;98433.41;4330806;33;33862;-88
2023/08/01 05:15:31;;;;;;;9.07;3.15;;;;;;;24.60;47.45;98439.47;4329612;33;33949;-88
2023/08/01 05:17:59;;;;;;;15.18;4.20;;;;;;;25.10;46.73;98441.06;4318711;33;33221;-88
2023/08/01 05:20:30;;;;;;;12.63;4.07;;;;;;;24.61;47.00;98437.66;4315405;33;33710;-89
2023/08/01 05:22:59;;;;;;;9.93;3.95;;;;;;;24.36;47.05;98432.81;4326540;33;33710;-89
2023/08/01 05:25:26;;;;;;;9.68;4.25;;;;;;;24.46;46.82;98429.63;4329932;33;34152;-89
2023/08/01 05:27:54;;;;;;;9.07;3.80;;;;;;;24.41;46.67;98429.03;4330017;33;33689;-87
2023/08/01 05:30:21;;;;;;;10.93;4.07;;;;;;;24.70;46.72;98426.53;4332602;33;34029;-87
2023/08/01 05:32:49;;;;;;;7.70;3.80;;;;;;;25.12;45.63;98414.47;4332283;33;34156;-89
2023/08/01 05:35:17;;;;;;;9.85;3.28;;;;;;;25.76;45.00;98428.31;4335800;33;33576;-89
2023/08/01 05:37:44;;;;;;;9.35;3.28;;;;;;;25.85;45.03;98436.63;4339122;33;34288;-89
2023/08/01 05:40:12;;;;;;;10.07;3.80;;;;;;;26.19;44.25;98435.38;4331584;33;34051;-88
2023/08/01 05:42:40;;;;;;;8.38;3.53;;;;;;;25.93;44.92;98436.13;4331978;33;34309;-90
2023/08/01 05:45:08;;;;;;;8.35;3.05;;;;;;;25.81;44.88;98432.44;4332370;33;33595;-88
2023/08/01 05:47:36;;;;;;;9.68;3.05;;;;;;;26.17;44.15;98437.25;4331898;33;33286;-88
2023/08/01 05:50:04;;;;;;;8.45;2.90;;;;;;;26.03;45.10;98429.31;4332151;33;33863;-89
2023/08/01 05:52:32;;;;;;;7.18;2.85;;;;;;;26.31;44.74;98436.41;4332989;33;34116;-88
2023/08/01 05:54:59;;;;;;;6.55;2.70;;;;;;;26.13;44.06;98433.09;4332017;33;34739;-88
2023/08/01 05:57:27;;;;;;;6.70;2.80;;;;;;;26.22;43.87;98428.19;4331899;33;33226;-87
2023/08/01 05:59:54;;;;;;;9.60;2.70;;;;;;;26.49;44.23;98439.75;4331607;33;34065;-88
2023/08/01 06:02:22;;;;;;;7.57;2.80;;;;;;;25.40;45.48;98426.94;4331885;33;33978;-88
2023/08/01 06:04:50;;;;;;;8.60;2.78;;;;;;;26.08;45.10;98424.56;4331659;33;33845;-87
2023/08/01 06:07:22;;;;;;;8.50;2.90;;;;;;;26.15;44.72;98438.31;4332194;33;34227;-89
2023/08/01 06:09:54;;;;;;;7.10;2.70;;;;;;;26.08;44.66;98437.84;4332280;33;33598;-90
2023/08/01 06:12:21;;;;;;;9.23;2.97;;;;;;;25.95;44.55;98434.25;4343146;33;33635;-90
2023/08/01 06:14:48;;;;;;;6.47;2.45;;;;;;;26.43;43.63;98440.09;4331786;33;34678;-88
2023/08/01 06:17:16;;;;;;;6.20;2.78;;;;;;;26.55;43.80;98438.47;4318639;33;33267;-89
2023/08/01 06:19:44;;;;;;;11.55;2.60;;;;;;;26.16;44.69;98426.75;4331963;33;34881;-89
2023/08/01 06:22:11;;;;;;;10.43;2.22;;;;;;;26.10;44.61;98429.78;4345536;33;33904;-88
2023/08/01 06:24:40;;;;;;;9.98;3.28;;;;;;;26.12;44.94;98436.72;4319204;33;34018;-88
2023/08/01 06:27:08;;;;;;;9.90;2.92;;;;;;;26.61;44.06;98433.63;4317917;33;33230;-88
2023/08/01 06:29:35;;;;;;;9.60;2.87;;;;;;;26.66;43.77;98439.50;4326395;33;33973;-88
2023/08/01 06:32:03;;;;;;;6.53;2.78;;;;;;;26.46;43.97;98428.44;4331692;33;34926;-91
2023/08/01 06:34:30;;;;;;;6.97;2.97;;;;;;;26.02;44.96;98437.38;4339241;33;33971;-88
2023/08/01 06:36:58;;;;;;;8.82;3.15;;;;;;;26.25;44.37;98433.28;4342491;33;33319;-90
2023/08/01 06:39:26;;;;;;;8.77;2.95;;;;;;;26.30;45.37;98432.06;4341456;33;34184;-86
2023/08/01 06:41:53;;;;;;;8.35;3.05;;;;;;;26.68;44.25;98424.31;4331628;33;34156;-92
2023/08/01 06:44:21;;;;;;;9.05;2.85;;;;;;;26.68;44.28;98426.13;4331841;33;33671;-94
2023/08/01 06:46:48;;;;;;;9.75;3.00;;;;;;;26.82;44.65;98425.19;4331980;33;34463;-86
2023/08/01 06:49:16;;;;;;;8.93;2.67;;;;;;;27.02;44.05;98427.41;4331353;33;34755;-86
2023/08/01 06:51:43;;;;;;;8.82;2.78;;;;;;;27.40;42.55;98421.38;4332449;33;35122;-89
2023/08/01 06:54:11;;;;;;;6.32;2.78;;;;;;;27.16;43.02;98414.09;4332116;33;33853;-86
2023/08/01 06:56:38;;;;;;;9.48;3.08;;;;;;;26.53;44.52;98419.97;4331845;33;34211;-88
2023/08/01 06:59:06;;;;;;;8.80;2.83;;;;;;;26.65;44.23;98413.00;4331567;33;34034;-85
2023/08/01 07:01:34;;;;;;;11.05;3.20;;;;;;;26.94;43.53;98416.44;4334066;33;34275;-90
2023/08/01 07:04:02;;;;;;;7.18;3.30;;;;;;;26.62;43.91;98416.72;4332978;33;34315;-88
2023/08/01 07:06:30;;;;;;;11.85;4.12;;;;;;;26.66;43.82;98420.03;4335720;33;33508;-84
2023/08/01 07:08:57;;;;;;;8.77;2.87;;;;;;;26.60;44.15;98420.44;4331723;33;33997;-86
2023/08/01 07:11:25;;;;;;;8.35;2.92;;;;;;;26.69;44.95;98410.06;4331884;33;33770;-86
2023/08/01 07:13:52;;;;;;;8.80;3.28;;;;;;;27.02;43.89;98407.94;4331635;33;33589;-86
2023/08/01 07:16:20;;;;;;;9.88;3.47;;;;;;;27.07;44.66;98395.19;4331356;33;33161;-86
2023/08/01 07:18:48;;;;;;;7.90;3.95;;;;;;;26.89;44.00;98410.56;4331369;33;33939;-87
2023/08/01 07:21:15;;;;;;;8.60;3.55;;;;;;;27.04;44.55;98406.88;4331330;33;34056;-85
2023/08/01 07:23:43;;;;;;;10.90;3.87;;;;;;;27.32;43.95;98397.94;4330932;33;34705;-86
2023/08/01 07:26:11;;;;;;;9.40;3.80;;;;;;;27.12;43.36;98399.28;4331382;33;33579;-87
2023/08/01 07:28:39;;;;;;;6.82;2.85;;;;;;;27.29;43.34;98403.47;4331413;33;34776;-89
2023/08/01 07:31:07;;;;;;;8.15;3.33;;;;;;;26.62;44.69;98410.56;4325602;33;34176;-86
2023/08/01 07:33:36;;;;;;;7.90;3.25;;;;;;;27.07;43.79;98388.06;4321296;33;34855;-87
2023/08/01 07:36:04;;;;;;;8.90;3.70;;;;;;;26.73;44.23;98409.84;4308229;33;33187;-86
2023/08/01 07:38:32;;;;;;;10.45;3.45;;;;;;;26.96;43.91;98390.56;4303232;33;32859;-86
2023/08/01 07:41:04;;;;;;;6.32;3.30;;;;;;;27.05;43.74;98389.09;4309211;33;33584;-86
2023/08/01 07:43:31;;;;;;;8.30;3.55;;;;;;;27.08;43.89;98381.75;4314461;33;33454;-87
2023/08/01 07:46:01;;;;;;;7.93;2.80;;;;;;;27.05;42.61;98394.41;4319296;33;34342;-83
2023/08/01 07:48:29;;;;;;;7.03;2.70;;;;;;;26.65;43.76;98400.56;4328541;33;33943;-86
2023/08/01 07:50:56;;;;;;;7.95;3.25;;;;;;;27.19;43.71;98382.88;4329075;33;33846;-87
2023/08/01 07:53:24;;;;;;;7.53;3.78;;;;;;;27.19;43.69;98378.41;4329099;33;34242;-86
2023/08/01 07:55:52;;;;;;;9.90;3.67;;;;;;;27.32;42.87;98375.78;4319876;33;33700;-86
2023/08/01 07:58:20;;;;;;;7.28;3.28;;;;;;;27.38;43.13;98367.38;4317640;33;33583;-86
2023/08/01 08:00:48;;;;;;;9.55;3.42;;;;;;;27.37;43.38;98365.69;4321344;33;33318;-88
2023/08/01 08:03:16;;;;;;;7.43;3.30;;;;;;;27.68;42.31;98367.06;4330761;33;34583;-86
2023/08/01 08:05:43;;;;;;;7.10;2.60;;;;;;;28.04;42.26;98357.47;4330051;33;33520;-87
2023/08/01 08:08:10;;;;;;;7.47;2.78;;;;;;;27.44;42.39;98363.44;4329687;33;33652;-85
2023/08/01 08:10:38;;;;;;;7.87;2.78;;;;;;;27.64;42.15;98365.56;4319887;33;34177;-87
2023/08/01 08:13:09;;;;;;;7.37;2.75;;;;;;;27.62;42.27;98363.03;4317347;33;33730;-86
2023/08/01 08:15:37;;;;;;;9.27;3.17;;;;;;;28.17;42.07;98368.09;4317832;33;34380;-83
2023/08/01 08:18:05;;;;;;;7.62;2.97;;;;;;;28.04;41.93;98360.97;4323476;33;33144;-85
2023/08/01 08:20:41;;;;;;;6.60;3.03;;;;;;;28.02;41.87;98362.87;4336284;33;34699;-88
2023/08/01 08:23:09;;;;;;;10.73;3.58;;;;;;;27.85;42.61;98358.78;4340419;33;34736;-88
2023/08/01 08:25:37;;;;;;;8.32;3.87;;;;;;;28.02;42.46;98362.03;4325151;33;33356;-89
2023/08/01 08:28:04;;;;;;;9.20;3.75;;;;;;;28.23;42.69;98370.31;4324959;33;34010;-86
2023/08/01 08:30:32;;;;;;;6.75;3.10;;;;;;;27.87;42.30;98371.97;4304841;33;34434;-87
2023/08/01 08:33:04;;;;;;;9.40;3.12;;;;;;;28.02;42.24;98354.91;4315425;33;34778;-89
2023/08/01 08:35:34;;;;;;;7.00;2.40;;;;;;;28.18;41.92;98353.78;4306250;33;33541;-87
2023/08/01 08:38:06;;;;;;;8.18;2.60;;;;;;;28.18;40.83;98359.12;4327854;33;33796;-87
2023/08/01 08:40:34;;;;;;;7.22;2.30;;;;;;;27.91;41.92;98345.97;4327731;33;33635;-86
2023/08/01 08:43:03;;;;;;;5.82;2.25;;;;;;;28.31;40.78;98346.63;4318871;33;35187;-86
2023/08/01 08:45:35;;;;;;;7.00;2.50;;;;;;;28.44;41.13;98343.94;4333646;33;33704;-88
2023/08/01 08:48:09;;;;;;;9.73;2.70;;;;;;;28.50;40.35;98340.81;4318068;33;33620;-85
2023/08/01 08:50:38;;;;;;;4.47;2.20;;;;;;;28.11;40.38;98348.06;4330351;33;35012;-85
2023/08/01 08:53:12;;;;;;;7.40;2.50;;;;;;;28.48;40.45;98346.25;4307382;33;33989;-85
2023/08/01 08:55:40;;;;;;;8.40;2.57;;;;;;;28.48;40.45;98342.75;4304561;33;33490;-85
2023/08/01 08:58:08;;;;;;;7.90;2.72;;;;;;;28.50;39.09;98336.34;4317041;33;33604;-85
2023/08/01 09:00:37;;;;;;;6.37;2.17;;;;;;;28.22;39.79;98329.47;4325795;33;34291;-85
2023/08/01 09:03:05;;;;;;;6.40;2.50;;;;;;;28.71;39.23;98325.03;4324721;33;34578;-85
2023/08/01 09:06:00;;;;;;;6.45;2.78;;;;;;;28.80;40.16;98324.34;4325594;33;33506;-84
2023/08/01 09:08:29;;;;;;;6.17;2.40;;;;;;;27.89;40.21;98324.78;4320226;33;34064;-85
2023/08/01 09:10:57;;;;;;;7.95;2.65;;;;;;;27.93;40.25;98325.41;4303591;33;33950;-85
2023/08/01 09:13:24;;;;;;;10.05;2.90;;;;;;;28.20;40.49;98319.91;4319827;33;34522;-86
2023/08/01 09:15:52;;;;;;;5.50;2.55;;;;;;;28.30;39.32;98323.59;4327407;33;34431;-84
2023/08/01 09:18:20;;;;;;;6.72;2.30;;;;;;;28.65;39.28;98309.50;4313873;33;34474;-84
2023/08/01 09:20:49;;;;;;;5.87;2.53;;;;;;;28.93;38.97;98308.25;4329591;33;33878;-86
2023/08/01 09:23:17;;;;;;;7.20;2.90;;;;;;;29.21;38.35;98307.00;4323857;33;34582;-85
2023/08/01 09:25:44;;;;;;;6.87;2.72;;;;;;;29.07;38.28;98287.59;4345802;33;33694;-86
2023/08/01 09:28:23;;;;;;;9.00;2.70;;;;;;;29.19;38.26;98293.78;4333888;33;34816;-86
2023/08/01 09:30:55;;;;;;;7.40;2.97;;;;;;;28.79;39.27;98285.28;4332589;33;35033;-83
2023/08/01 09:33:23;;;;;;;8.23;2.85;;;;;;;29.03;38.82;98283.47;4330247;33;34259;-84
2023/08/01 09:35:51;;;;;;;8.38;2.47;;;;;;;29.16;38.43;98294.03;4317034;33;34337;-86
2023/08/01 09:38:19;;;;;;;6.45;2.30;;;;;;;28.96;37.21;98284.88;4330296;33;34089;-84
2023/08/01 09:40:47;;;;;;;9.57;2.92;;;;;;;29.04;36.74;98285.16;4330567;33;34182;-85
2023/08/01 09:43:15;;;;;;;6.28;2.40;;;;;;;28.33;37.32;98289.56;4331930;33;34068;-85
2023/08/01 09:45:52;;;;;;;5.93;2.30;;;;;;;28.56;37.66;98284.34;4342078;33;32645;-85
2023/08/01 09:48:27;;;;;;;6.47;2.70;;;;;;;28.59;38.08;98290.31;4345189;33;33781;-85
2023/08/01 09:51:08;;;;;;;6.63;2.33;;;;;;;28.69;37.82;98281.62;4331661;33;35302;-86
2023/08/01 09:53:47;;;;;;;5.82;2.22;;;;;;;28.48;37.46;98274.25;4344932;33;34863;-85
2023/08/01 09:56:18;;;;;;;6.25;2.53;;;;;;;28.69;36.95;98281.62;4335470;33;33114;-84
2023/08/01 09:58:46;;;;;;;6.20;2.25;;;;;;;28.69;36.87;98270.97;4327778;33;33974;-83
2023/08/01 10:01:22;;;;;;;7.22;2.35;;;;;;;28.74;36.31;98271.47;4330170;33;34946;-84
2023/08/01 10:03:51;;;;;;;4.80;2.10;;;;;;;28.71;36.92;98266.34;4336563;33;33862;-85
2023/08/01 10:06:21;;;;;;;6.50;2.87;;;;;;;28.92;37.38;98259.38;4329912;33;34676;-87
2023/08/01 10:08:51;;;;;;;6.12;2.37;;;;;;;28.80;37.32;98253.19;4328739;33;33626;-78
2023/08/01 10:11:22;;;;;;;9.55;2.30;;;;;;;28.59;35.55;98250.31;4328809;33;35081;-87
2023/08/01 10:13:49;;;;;;;6.28;2.30;;;;;;;28.68;35.38;98243.44;4319370;33;34177;-86
2023/08/01 10:16:17;;;;;;;6.72;2.83;;;;;;;28.64;36.08;98244.66;4331305;33;33239;-87
2023/08/01 10:18:45;;;;;;;6.37;2.53;;;;;;;28.73;35.33;98243.09;4318311;33;34213;-86
2023/08/01 10:21:16;;;;;;;7.22;2.83;;;;;;;28.45;36.43;98234.53;4344434;33;34665;-84
2023/08/01 10:23:45;;;;;;;7.03;3.28;;;;;;;28.90;36.16;98233.78;4344655;33;34884;-85
2023/08/01 10:26:13;;;;;;;8.57;2.55;;;;;;;28.97;36.34;98230.53;4331504;33;34364;-83
2023/08/01 10:28:49;;;;;;;7.65;2.60;;;;;;;29.12;36.29;98228.50;4331550;33;33672;-85
2023/08/01 10:31:18;;;;;;;5.22;2.30;;;;;;;29.27;35.34;98227.31;4331418;33;33368;-84
2023/08/01 10:33:47;;;;;;;4.25;2.03;;;;;;;28.80;34.10;98221.16;4331397;33;33910;-85
2023/08/01 10:36:27;;;;;;;4.68;1.87;;;;;;;28.93;33.71;98229.06;4318137;33;34379;-83
2023/08/01 10:38:58;;;;;;;5.25;2.10;;;;;;;29.06;33.68;98213.84;4335792;33;34147;-83
2023/08/01 10:41:29;;;;;;;5.43;2.00;;;;;;;28.75;32.48;98215.34;4319221;33;33785;-86
2023/08/01 10:44:11;;;;;;;4.40;2.15;;;;;;;29.06;32.90;98213.84;4319206;33;33799;-82
2023/08/01 10:46:52;;;;;;;6.93;2.33;;;;;;;28.97;33.99;98211.84;4330862;33;33651;-84
2023/08/01 10:49:32;;;;;;;7.20;2.20;;;;;;;29.32;34.56;98209.13;4331659;33;34914;-85
2023/08/01 10:51:59;;;;;;;4.57;2.15;;;;;;;29.08;32.45;98203.88;4342887;33;33684;-84
2023/08/01 10:54:27;;;;;;;7.18;2.60;;;;;;;28.95;33.37;98203.13;4334806;33;33969;-83
2023/08/01 10:57:01;;;;;;;7.12;1.87;;;;;;;28.90;33.69;98199.94;4333363;33;34082;-83
2023/08/01 10:59:31;;;;;;;8.02;1.98;;;;;;;28.86;34.47;98191.31;4331425;33;34727;-84
2023/08/01 11:02:00;;;;;;;8.05;2.60;;;;;;;28.58;34.05;98197.94;4331084;33;33959;-85
2023/08/01 11:04:27;;;;;;;8.25;2.83;;;;;;;28.76;34.34;98189.50;4295707;33;33722;-85
2023/08/01 11:06:56;;;;;;;6.28;2.25;;;;;;;28.86;34.03;98180.66;4331584;33;33598;-84
2023/08/01 11:09:25;;;;;;;6.80;2.37;;;;;;;29.10;32.83;98182.44;4331456;33;33625;-86
2023/08/01 11:11:58;;;;;;;5.85;2.50;;;;;;;28.89;32.33;98174.25;4318285;33;33973;-84
2023/08/01 11:14:28;;;;;;;7.03;2.08;;;;;;;29.12;32.55;98164.47;4342345;33;34295;-84
2023/08/01 11:16:56;;;;;;;7.05;2.20;;;;;;;29.29;32.64;98173.81;4322771;33;33623;-83
2023/08/01 11:19:26;;;;;;;6.20;1.70;;;;;;;29.30;33.59;98178.16;4331411;33;33598;-82
2023/08/01 11:21:58;;;;;;;6.70;2.25;;;;;;;29.31;33.26;98177.19;4331203;33;34983;-83
2023/08/01 11:24:26;;;;;;;4.70;1.98;;;;;;;29.27;32.55;98157.91;4332468;33;34169;-85
2023/08/01 11:26:54;;;;;;;6.75;2.62;;;;;;;29.13;32.87;98160.81;4332834;33;34251;-85
2023/08/01 11:29:21;;;;;;;4.80;2.30;;;;;;;29.30;32.15;98151.47;4336252;33;33893;-84
2023/08/01 11:31:56;;;;;;;6.80;2.45;;;;;;;29.40;32.43;98152.44;4336096;33;34336;-87
2023/08/01 11:34:25;;;;;;;7.15;2.05;;;;;;;29.49;32.49;98151.69;4317682;33;34057;-85
2023/08/01 11:36:52;;;;;;;5.57;2.20;;;;;;;29.37;33.07;98144.66;4342600;33;33490;-85
2023/08/01 11:39:22;;;;;;;8.02;2.60;;;;;;;29.06;32.84;98138.28;4320311;33;34642;-84
2023/08/01 11:41:50;;;;;;;5.07;2.20;;;;;;;29.09;33.03;98140.69;4319445;33;34050;-85